Time;durP1;ratioP1;P1;durP2;ratioP2;P2;SDS_P1;SDS_P2;PMS_P1;PMS_P2;Temp;Humidity;BMP_temperature;BMP_pressure;BME280_temperature;BME280_humidity;BME280_pressure;Samples;Min_cycle;Max_cycle;Signal;HPM_P1;HPM_P2
2022/11/03 00:01:09;;;;;;;0.40;0.40;;;10.50;99.90;;;;;;5052884;28;20051;-76
2022/11/03 00:03:35;;;;;;;0.47;0.47;;;10.50;99.90;;;;;;5073923;28;20040;-76
2022/11/03 00:06:04;;;;;;;0.50;0.50;;;10.50;99.90;;;;;;5073552;28;20067;-75
2022/11/03 00:08:34;;;;;;;0.45;0.45;;;10.50;99.90;;;;;;5073206;28;20048;-78
2022/11/03 00:11:06;;;;;;;0.60;0.60;;;10.50;99.90;;;;;;5073553;28;20072;-75
2022/11/03 00:13:31;;;;;;;0.60;0.60;;;10.50;99.90;;;;;;5072343;28;20165;-75
2022/11/03 00:15:57;;;;;;;0.50;0.50;;;10.50;99.90;;;;;;5073864;28;20065;-77
2022/11/03 00:18:23;;;;;;;10.70;3.53;;;10.50;99.90;;;;;;5075956;28;20110;-76
2022/11/03 00:20:59;;;;;;;0.88;0.88;;;10.50;99.90;;;;;;5060539;28;20047;-76
2022/11/03 00:23:31;;;;;;;1.13;1.13;;;10.50;99.90;;;;;;5075390;28;20040;-76
2022/11/03 00:26:26;;;;;;;0.60;0.60;;;10.50;99.90;;;;;;5073724;28;20800;-77
2022/11/03 00:28:54;;;;;;;0.60;0.60;;;10.50;99.90;;;;;;5071321;28;20088;-75
2022/11/03 00:31:26;;;;;;;0.60;0.60;;;10.50;99.90;;;;;;5072768;28;20462;-76
2022/11/03 00:33:52;;;;;;;0.85;0.60;;;10.40;99.90;;;;;;5073544;28;20052;-76
2022/11/03 00:36:24;;;;;;;0.50;0.50;;;10.40;99.90;;;;;;5070764;28;20066;-76
2022/11/03 00:38:50;;;;;;;0.45;0.45;;;10.50;99.90;;;;;;5076294;28;20036;-76
2022/11/03 00:41:19;;;;;;;0.40;0.40;;;10.40;99.90;;;;;;5059054;28;20044;-76
2022/11/03 00:43:45;;;;;;;0.40;0.40;;;10.40;99.90;;;;;;5074174;28;20059;-77
2022/11/03 00:46:12;;;;;;;0.32;0.32;;;10.40;99.90;;;;;;5076395;28;20040;-75
2022/11/03 00:48:38;;;;;;;0.50;0.50;;;10.40;99.90;;;;;;5077297;28;20101;-76
2022/11/03 00:51:09;;;;;;;;;;;10.40;99.90;;;;;;5062391;28;20127;-77
2022/11/03 00:53:38;;;;;;;0.60;0.60;;;10.30;99.90;;;;;;5110937;27;19928;-76
2022/11/03 00:56:05;;;;;;;0.60;0.60;;;10.30;99.90;;;;;;5060869;28;20431;-77
2022/11/03 00:58:32;;;;;;;0.90;0.90;;;10.30;99.90;;;;;;5077208;28;20052;-77
2022/11/03 01:01:18;;;;;;;0.50;0.50;;;10.20;99.90;;;;;;5079476;28;20490;-76
2022/11/03 01:06:48;;;;;;;0.55;0.55;;;10.30;99.90;;;;;;5075239;28;20078;-76
2022/11/03 01:09:26;;;;;;;0.50;0.50;;;10.30;99.90;;;;;;5077600;28;20073;-75
2022/11/03 01:12:18;;;;;;;0.98;0.98;;;10.20;99.90;;;;;;5077638;28;20047;-76
2022/11/03 01:14:49;;;;;;;0.38;0.38;;;10.00;99.90;;;;;;5065070;28;20502;-75
2022/11/03 01:17:18;;;;;;;0.47;0.47;;;10.00;99.90;;;;;;5076427;28;20127;-76
2022/11/03 01:19:44;;;;;;;0.75;0.75;;;10.00;99.90;;;;;;5058893;28;20367;-76
2022/11/03 01:22:11;;;;;;;4.43;1.55;;;10.00;99.90;;;;;;5052338;28;20039;-77
2022/11/03 01:24:37;;;;;;;0.57;0.57;;;9.90;99.90;;;;;;5078513;28;20089;-74
2022/11/03 01:27:02;;;;;;;0.50;0.50;;;10.00;99.90;;;;;;5077209;28;20097;-76
2022/11/03 01:29:28;;;;;;;1.80;1.75;;;10.30;99.90;;;;;;5079307;28;20043;-75
2022/11/03 01:31:54;;;;;;;1.05;1.05;;;10.10;99.90;;;;;;5080893;28;20566;-75
2022/11/03 01:34:20;;;;;;;1.10;1.00;;;10.00;99.90;;;;;;5077290;28;20040;-77
2022/11/03 01:36:47;;;;;;;0.40;0.40;;;9.90;99.90;;;;;;5062583;28;20038;-76
2022/11/03 01:39:14;;;;;;;0.50;0.50;;;9.90;99.90;;;;;;5078079;28;20170;-78
2022/11/03 01:41:46;;;;;;;0.50;0.50;;;10.00;99.90;;;;;;5093846;28;20043;-76
2022/11/03 01:44:12;;;;;;;0.50;0.50;;;10.00;99.90;;;;;;5076798;28;20041;-75
2022/11/03 01:46:53;;;;;;;0.50;0.50;;;10.00;99.90;;;;;;5078824;28;20036;-76
2022/11/03 01:49:29;;;;;;;0.50;0.50;;;10.00;99.90;;;;;;5074364;28;20131;-76
2022/11/03 01:52:07;;;;;;;0.30;0.30;;;10.00;99.90;;;;;;5077715;28;20044;-76
2022/11/03 01:54:35;;;;;;;1.17;1.17;;;9.90;99.90;;;;;;5077339;28;20069;-74
2022/11/03 01:57:10;;;;;;;0.68;0.68;;;10.00;99.90;;;;;;5059249;28;20072;-76
2022/11/03 01:59:36;;;;;;;0.55;0.55;;;10.00;99.90;;;;;;5062442;28;20111;-76
2022/11/03 02:02:02;;;;;;;0.60;0.60;;;9.90;99.90;;;;;;5062210;28;20039;-77
2022/11/03 02:04:30;;;;;;;0.52;0.52;;;9.90;99.90;;;;;;5069443;28;21632;-76
2022/11/03 02:07:40;;;;;;;0.43;0.43;;;9.80;99.90;;;;;;5081693;28;20059;-76
2022/11/03 02:10:08;;;;;;;0.40;0.40;;;9.80;99.90;;;;;;5059884;28;20044;-76
2022/11/03 02:12:34;;;;;;;0.32;0.32;;;9.80;99.90;;;;;;5078120;28;20036;-76
2022/11/03 02:15:08;;;;;;;0.50;0.50;;;9.80;99.90;;;;;;5064126;28;20043;-76
2022/11/03 02:17:36;;;;;;;0.50;0.50;;;9.70;99.90;;;;;;5076445;28;20058;-77
2022/11/03 02:20:15;;;;;;;0.45;0.45;;;9.70;99.90;;;;;;5079299;28;20048;-76
2022/11/03 02:23:09;;;;;;;0.50;0.50;;;9.70;99.90;;;;;;5077716;28;20040;-76
2022/11/03 02:25:48;;;;;;;0.55;0.55;;;9.80;99.90;;;;;;5058861;28;20048;-77
2022/11/03 02:28:27;;;;;;;0.47;0.47;;;9.80;99.90;;;;;;5082283;28;20044;-76
2022/11/03 02:31:23;;;;;;;0.50;0.50;;;9.90;99.90;;;;;;5076266;28;20048;-75
2022/11/03 02:34:09;;;;;;;1.15;1.13;;;9.90;99.90;;;;;;5070397;28;20045;-76
2022/11/03 02:36:57;;;;;;;0.85;0.85;;;9.90;99.90;;;;;;5079723;28;20068;-76
2022/11/03 02:39:34;;;;;;;5.32;0.65;;;9.90;99.90;;;;;;5058017;28;20044;-77
2022/11/03 02:42:03;;;;;;;0.40;0.40;;;9.90;99.90;;;;;;5078313;28;20124;-76
2022/11/03 02:44:32;;;;;;;1.92;1.85;;;9.90;99.90;;;;;;5061050;28;20047;-76
2022/11/03 02:47:02;;;;;;;0.45;0.45;;;9.90;99.90;;;;;;5074023;28;20047;-75
2022/11/03 02:49:28;;;;;;;0.47;0.47;;;9.90;99.90;;;;;;5056437;28;20059;-76
2022/11/03 02:52:01;;;;;;;0.45;0.45;;;9.80;99.90;;;;;;5076110;28;20489;-76
2022/11/03 02:54:47;;;;;;;1.17;1.17;;;9.80;99.90;;;;;;5070020;28;20060;-76
2022/11/03 02:57:20;;;;;;;0.52;0.52;;;9.80;99.90;;;;;;5090589;28;20040;-76
2022/11/03 02:59:58;;;;;;;0.70;0.70;;;9.80;99.90;;;;;;5082092;28;20446;-77
2022/11/03 03:02:32;;;;;;;0.50;0.50;;;9.90;99.90;;;;;;5063308;28;20229;-76
2022/11/03 03:05:02;;;;;;;0.50;0.50;;;9.90;99.90;;;;;;5096696;28;20040;-75
2022/11/03 03:07:35;;;;;;;0.40;0.40;;;9.90;99.90;;;;;;5080178;28;20071;-76
2022/11/03 03:10:16;;;;;;;0.40;0.40;;;10.00;99.90;;;;;;5075890;28;20048;-76
2022/11/03 03:12:48;;;;;;;0.60;0.60;;;10.00;99.90;;;;;;5079058;28;20044;-77
2022/11/03 03:15:15;;;;;;;1.17;1.17;;;10.00;99.90;;;;;;5109887;27;20055;-76
2022/11/03 03:18:00;;;;;;;0.73;0.73;;;10.00;99.90;;;;;;5077333;28;20053;-74
2022/11/03 03:20:32;;;;;;;0.60;0.60;;;10.10;99.90;;;;;;5078847;28;20054;-76
2022/11/03 03:23:00;;;;;;;0.60;0.60;;;10.10;99.90;;;;;;5109672;27;20040;-75
2022/11/03 03:25:31;;;;;;;0.50;0.50;;;10.20;99.90;;;;;;5092034;27;20043;-76
2022/11/03 03:28:22;;;;;;;0.77;0.77;;;10.20;99.90;;;;;;5079660;28;20040;-75
2022/11/03 03:30:49;;;;;;;0.50;0.50;;;10.20;99.90;;;;;;5083538;28;20055;-77
2022/11/03 03:33:16;;;;;;;0.55;0.55;;;10.20;99.90;;;;;;5080624;28;20388;-77
2022/11/03 03:35:46;;;;;;;0.32;0.32;;;10.30;99.90;;;;;;5113260;27;20044;-76
2022/11/03 03:38:20;;;;;;;0.40;0.40;;;10.30;99.90;;;;;;5081095;28;20047;-76
2022/11/03 03:40:50;;;;;;;0.40;0.40;;;10.30;99.90;;;;;;5087726;28;20031;-77
2022/11/03 03:43:16;;;;;;;0.50;0.50;;;10.30;99.90;;;;;;5111828;27;20737;-76
2022/11/03 03:45:44;;;;;;;0.43;0.43;;;10.30;99.90;;;;;;5078181;28;20044;-76
2022/11/03 03:48:11;;;;;;;0.40;0.40;;;10.30;99.90;;;;;;5078257;28;20101;-76
2022/11/03 03:50:40;;;;;;;1.75;1.58;;;10.30;99.90;;;;;;5060773;28;20426;-77
2022/11/03 03:53:10;;;;;;;0.40;0.40;;;10.30;99.90;;;;;;5076726;28;20093;-76
2022/11/03 03:55:39;;;;;;;0.70;0.70;;;10.40;99.90;;;;;;5080859;28;20036;-76
2022/11/03 03:58:05;;;;;;;0.40;0.40;;;10.40;99.90;;;;;;5075747;28;20097;-78
2022/11/03 04:00:31;;;;;;;0.43;0.43;;;10.40;99.90;;;;;;5076367;28;20035;-77
2022/11/03 04:02:57;;;;;;;0.50;0.50;;;10.40;99.90;;;;;;5076669;28;20036;-77
2022/11/03 04:05:24;;;;;;;0.50;0.50;;;10.40;99.90;;;;;;5075293;28;20404;-76
2022/11/03 04:07:50;;;;;;;0.65;0.65;;;10.40;99.90;;;;;;5077904;28;20101;-77
2022/11/03 04:10:17;;;;;;;;;;;10.30;99.90;;;;;;5063826;28;20039;-76
2022/11/03 04:23:59;;;;;;;0.40;0.40;;;10.20;99.90;;;;;;5090354;28;20073;-77
2022/11/03 04:26:28;;;;;;;0.57;0.57;;;10.20;99.90;;;;;;5078026;28;20381;-76
2022/11/03 04:28:55;;;;;;;0.40;0.40;;;10.20;99.90;;;;;;5081720;28;20102;-76
2022/11/03 04:31:21;;;;;;;0.70;0.70;;;10.20;99.90;;;;;;5080137;28;20051;-74
2022/11/03 04:33:47;;;;;;;1.13;1.13;;;10.10;99.90;;;;;;5077826;28;20169;-75
2022/11/03 04:36:21;;;;;;;0.50;0.50;;;10.10;99.90;;;;;;5079704;28;20388;-78
2022/11/03 04:38:51;;;;;;;0.52;0.52;;;10.10;99.90;;;;;;5077316;28;20107;-76
2022/11/03 04:41:20;;;;;;;6.70;3.30;;;10.20;99.90;;;;;;5078545;28;20434;-77
2022/11/03 04:43:46;;;;;;;0.40;0.40;;;10.20;99.90;;;;;;5116689;28;20373;-76
2022/11/03 04:46:22;;;;;;;0.40;0.40;;;10.20;99.90;;;;;;5066425;28;20040;-77
2022/11/03 04:48:48;;;;;;;0.77;0.77;;;10.20;99.90;;;;;;5077311;28;20047;-77
2022/11/03 04:51:19;;;;;;;;;;;10.30;99.90;;;;;;5077722;28;20054;-74
2022/11/03 04:53:51;;;;;;;0.57;0.57;;;10.30;99.90;;;;;;5080678;28;19961;-77
2022/11/03 04:56:20;;;;;;;0.45;0.45;;;10.30;99.90;;;;;;5066490;28;20047;-75
2022/11/03 04:58:47;;;;;;;0.50;0.50;;;10.30;99.90;;;;;;5085428;28;20036;-78
2022/11/03 05:01:16;;;;;;;0.55;0.55;;;10.30;99.90;;;;;;5078745;28;20070;-75
2022/11/03 05:03:43;;;;;;;0.30;0.30;;;10.30;99.90;;;;;;5079341;28;20036;-76
2022/11/03 05:06:15;;;;;;;0.47;0.47;;;10.30;99.90;;;;;;5076364;28;20067;-76
2022/11/03 05:08:45;;;;;;;0.77;0.77;;;10.30;99.90;;;;;;5080677;28;20146;-77
2022/11/03 05:11:23;;;;;;;0.50;0.50;;;10.30;99.90;;;;;;5079652;28;20178;-78
2022/11/03 05:13:51;;;;;;;0.40;0.40;;;10.20;99.90;;;;;;5077263;28;20044;-75
2022/11/03 05:16:17;;;;;;;0.50;0.50;;;10.20;99.90;;;;;;5062461;28;20123;-76
2022/11/03 05:18:45;;;;;;;0.47;0.47;;;10.20;99.90;;;;;;5059066;28;20035;-77
2022/11/03 05:21:18;;;;;;;0.50;0.50;;;10.10;99.90;;;;;;5078632;28;20356;-77
2022/11/03 05:23:49;;;;;;;0.60;0.60;;;10.10;99.90;;;;;;5060509;28;20089;-77
2022/11/03 05:26:23;;;;;;;0.88;0.60;;;10.10;99.90;;;;;;5107679;28;20052;-75
2022/11/03 05:29:00;;;;;;;0.60;0.60;;;10.10;99.90;;;;;;5077974;28;20044;-77
2022/11/03 05:31:33;;;;;;;0.40;0.40;;;10.10;99.90;;;;;;5081200;28;20069;-76
2022/11/03 05:34:01;;;;;;;0.50;0.50;;;10.10;99.90;;;;;;5080184;28;20784;-75
2022/11/03 05:36:29;;;;;;;0.45;0.45;;;10.20;99.90;;;;;;5064104;28;20468;-76
2022/11/03 05:39:28;;;;;;;0.60;0.60;;;10.20;99.90;;;;;;5115768;27;20090;-77
2022/11/03 05:41:56;;;;;;;0.40;0.40;;;10.10;99.90;;;;;;5067648;28;20051;-75
2022/11/03 05:44:28;;;;;;;0.60;0.60;;;10.10;99.90;;;;;;5098519;28;20046;-77
2022/11/03 05:46:55;;;;;;;0.50;0.50;;;10.10;99.90;;;;;;5078758;28;20047;-76
2022/11/03 05:49:21;;;;;;;1.05;1.05;;;10.10;99.90;;;;;;5075843;28;20048;-75
2022/11/03 05:51:47;;;;;;;0.30;0.30;;;10.10;99.90;;;;;;5111787;27;20488;-76
2022/11/03 05:54:22;;;;;;;0.40;0.40;;;10.00;99.90;;;;;;5049344;28;20366;-76
2022/11/03 05:56:48;;;;;;;0.55;0.55;;;9.90;99.90;;;;;;5063779;28;20514;-76
2022/11/03 05:59:18;;;;;;;;;;;9.90;99.90;;;;;;5079590;28;20053;-76
2022/11/03 06:01:44;;;;;;;0.47;0.47;;;9.90;99.90;;;;;;5080316;28;19977;-76
2022/11/03 06:04:33;;;;;;;0.80;0.80;;;9.90;99.90;;;;;;5094248;27;20047;-75
2022/11/03 06:07:23;;;;;;;0.60;0.60;;;9.80;99.90;;;;;;5077845;28;20460;-75
2022/11/03 06:09:52;;;;;;;0.60;0.60;;;9.80;99.90;;;;;;5075408;28;20106;-77
2022/11/03 06:12:19;;;;;;;5.05;4.65;;;9.80;99.90;;;;;;5080520;28;20047;-78
2022/11/03 06:14:45;;;;;;;0.50;0.40;;;9.80;99.90;;;;;;5063604;28;20044;-77
2022/11/03 06:17:17;;;;;;;0.80;0.60;;;9.80;99.90;;;;;;5080810;28;20043;-77
2022/11/03 06:19:47;;;;;;;0.50;0.50;;;9.80;99.90;;;;;;5081788;28;20114;-77
2022/11/03 06:22:26;;;;;;;0.50;0.50;;;9.80;99.90;;;;;;5063548;28;20554;-78
2022/11/03 06:25:13;;;;;;;0.50;0.50;;;9.80;99.90;;;;;;5100476;27;20047;-76
2022/11/03 06:27:39;;;;;;;0.40;0.40;;;9.80;99.90;;;;;;5113760;27;20036;-77
2022/11/03 06:30:25;;;;;;;0.50;0.50;;;9.90;99.90;;;;;;5063365;28;20470;-76
2022/11/03 06:32:52;;;;;;;0.47;0.47;;;9.70;99.90;;;;;;5066589;28;20093;-77
2022/11/03 06:35:18;;;;;;;0.60;0.60;;;9.70;99.90;;;;;;5082923;28;20382;-77
2022/11/03 06:37:43;;;;;;;;;;;9.80;99.90;;;;;;5062760;28;20028;-77
2022/11/03 06:40:09;;;;;;;0.55;0.55;;;9.80;99.90;;;;;;5115108;27;20376;-75
2022/11/03 06:42:40;;;;;;;0.60;0.60;;;9.90;99.90;;;;;;5102285;27;20055;-76
2022/11/03 06:45:24;;;;;;;0.43;0.43;;;9.90;99.90;;;;;;5078660;28;20092;-76
2022/11/03 06:47:52;;;;;;;0.40;0.40;;;9.90;99.90;;;;;;5082071;28;20071;-77
2022/11/03 06:50:32;;;;;;;0.70;0.70;;;9.90;99.90;;;;;;5078046;28;20104;-76
2022/11/03 06:53:00;;;;;;;1.45;0.47;;;10.00;99.90;;;;;;5070799;28;20053;-76
2022/11/03 06:55:37;;;;;;;0.50;0.50;;;10.00;99.90;;;;;;5078535;28;20135;-76
2022/11/03 06:58:31;;;;;;;0.47;0.47;;;10.00;99.90;;;;;;5096684;28;20046;-79
2022/11/03 07:01:00;;;;;;;0.50;0.50;;;10.00;99.90;;;;;;5057706;28;20052;-76
2022/11/03 07:03:34;;;;;;;0.40;0.40;;;10.10;99.90;;;;;;5075714;28;20047;-76
2022/11/03 07:06:26;;;;;;;0.40;0.40;;;10.20;99.90;;;;;;5059727;28;20059;-77
2022/11/03 07:08:58;;;;;;;0.43;0.43;;;10.10;99.90;;;;;;5079730;28;20097;-77
2022/11/03 07:11:34;;;;;;;1.08;1.08;;;10.10;99.90;;;;;;5075490;28;20038;-76
2022/11/03 07:14:26;;;;;;;0.55;0.55;;;10.20;99.90;;;;;;5071231;28;20052;-78
2022/11/03 07:16:56;;;;;;;0.43;0.43;;;10.20;99.90;;;;;;5077143;28;20045;-76
2022/11/03 07:19:21;;;;;;;0.68;0.57;;;10.20;99.90;;;;;;5058727;28;20076;-75
2022/11/03 07:21:49;;;;;;;0.50;0.50;;;10.20;99.90;;;;;;5060087;28;20071;-76
2022/11/03 07:24:17;;;;;;;0.50;0.50;;;10.20;99.90;;;;;;5079344;28;20048;-78
2022/11/03 07:26:43;;;;;;;0.52;0.52;;;10.30;99.90;;;;;;5076076;28;20072;-75
2022/11/03 07:29:22;;;;;;;0.82;0.82;;;10.30;99.90;;;;;;5072361;28;21719;-78
2022/11/03 07:31:50;;;;;;;0.65;0.65;;;10.40;99.90;;;;;;5077408;28;20044;-77
2022/11/03 07:34:21;;;;;;;2.42;1.90;;;10.40;99.90;;;;;;5075173;28;20136;-77
2022/11/03 07:36:48;;;;;;;1.00;1.00;;;10.50;99.90;;;;;;5077531;28;20048;-77
2022/11/03 07:39:18;;;;;;;0.50;0.50;;;10.50;99.90;;;;;;5058655;28;20044;-78
2022/11/03 07:41:44;;;;;;;0.38;0.38;;;10.60;99.90;;;;;;5073780;28;20132;-77
2022/11/03 07:44:19;;;;;;;0.57;0.57;;;10.60;99.90;;;;;;5075365;28;20056;-76
2022/11/03 07:46:47;;;;;;;0.60;0.60;;;10.70;99.90;;;;;;5076920;28;20035;-78
2022/11/03 07:49:27;;;;;;;0.40;0.40;;;10.70;99.90;;;;;;5076731;28;20081;-77
2022/11/03 07:51:56;;;;;;;0.50;0.50;;;10.80;99.90;;;;;;5073998;28;20647;-77
2022/11/03 07:54:27;;;;;;;0.50;0.50;;;10.80;99.90;;;;;;5078911;28;20070;-77
2022/11/03 07:57:10;;;;;;;1.05;1.05;;;10.90;99.90;;;;;;5060276;28;20075;-77
2022/11/03 07:59:42;;;;;;;0.70;0.70;;;11.00;99.90;;;;;;5062492;28;20067;-80
2022/11/03 08:02:23;;;;;;;0.40;0.40;;;11.00;99.90;;;;;;5081788;28;20079;-77
2022/11/03 08:04:49;;;;;;;0.40;0.40;;;11.10;99.90;;;;;;5080459;28;20046;-77
2022/11/03 08:07:14;;;;;;;0.30;0.30;;;11.10;99.90;;;;;;5060128;28;20036;-76
2022/11/03 08:09:40;;;;;;;0.40;0.40;;;11.20;99.90;;;;;;5112367;27;20047;-77
2022/11/03 08:12:06;;;;;;;0.60;0.60;;;11.20;99.90;;;;;;5065797;28;20040;-76
2022/11/03 08:14:32;;;;;;;0.65;0.65;;;11.20;99.90;;;;;;5079043;28;20433;-77
2022/11/03 08:16:58;;;;;;;0.80;0.80;;;11.30;99.90;;;;;;5063667;28;20059;-77
2022/11/03 08:19:24;;;;;;;0.30;0.30;;;11.30;99.90;;;;;;5078983;28;20070;-77
2022/11/03 08:21:49;;;;;;;0.82;0.55;;;11.40;99.90;;;;;;5074925;28;20050;-78
2022/11/03 08:24:15;;;;;;;0.63;0.63;;;11.40;99.90;;;;;;5076742;28;20067;-78
2022/11/03 08:26:41;;;;;;;0.32;0.32;;;11.50;99.90;;;;;;5061455;28;20040;-77
2022/11/03 08:29:07;;;;;;;0.63;0.63;;;11.60;99.90;;;;;;5060024;28;20071;-77
2022/11/03 08:31:32;;;;;;;0.40;0.40;;;11.60;99.90;;;;;;5097827;28;20074;-79
2022/11/03 08:33:58;;;;;;;0.50;0.50;;;11.70;99.90;;;;;;5061975;28;20044;-77
2022/11/03 08:36:24;;;;;;;0.30;0.30;;;11.80;99.90;;;;;;5079287;28;20105;-78
2022/11/03 08:38:49;;;;;;;0.43;0.43;;;11.90;99.90;;;;;;5074502;28;21810;-77
2022/11/03 08:41:15;;;;;;;0.35;0.35;;;12.00;99.90;;;;;;5094682;28;20483;-77
2022/11/03 08:43:42;;;;;;;0.45;0.45;;;12.10;99.90;;;;;;5110554;28;20040;-78
2022/11/03 08:46:08;;;;;;;0.85;0.85;;;12.20;99.90;;;;;;5077108;28;20401;-77
2022/11/03 08:48:33;;;;;;;0.28;0.28;;;12.30;99.90;;;;;;5085088;28;20036;-76
2022/11/03 08:50:59;;;;;;;0.30;0.30;;;12.40;99.90;;;;;;5096437;28;20101;-77
2022/11/03 08:53:26;;;;;;;0.50;0.50;;;12.50;99.90;;;;;;5063706;28;20131;-77
2022/11/03 08:55:55;;;;;;;0.60;0.60;;;12.50;99.90;;;;;;5077003;28;20067;-76
2022/11/03 08:58:21;;;;;;;0.57;0.57;;;12.60;99.90;;;;;;5076162;28;20136;-77
2022/11/03 09:00:48;;;;;;;0.63;0.63;;;12.60;99.90;;;;;;5109698;28;20036;-77
2022/11/03 09:03:14;;;;;;;0.35;0.35;;;12.60;99.90;;;;;;5079711;28;20242;-77
2022/11/03 09:05:40;;;;;;;;;;;12.70;99.90;;;;;;5099761;28;20056;-76
2022/11/03 09:08:06;;;;;;;0.47;0.47;;;12.70;99.90;;;;;;5081485;28;19961;-77
2022/11/03 09:10:33;;;;;;;0.93;0.93;;;12.70;99.90;;;;;;5085258;28;20043;-77
2022/11/03 09:12:58;;;;;;;0.60;0.60;;;12.60;99.90;;;;;;5082704;28;20464;-76
2022/11/03 09:15:24;;;;;;;0.30;0.30;;;12.60;99.90;;;;;;5077954;28;20052;-76
2022/11/03 09:17:51;;;;;;;0.40;0.40;;;12.70;99.90;;;;;;5061591;28;20047;-76
2022/11/03 09:20:17;;;;;;;0.43;0.43;;;12.70;99.90;;;;;;5083124;28;20036;-79
2022/11/03 09:22:49;;;;;;;0.30;0.30;;;12.70;99.90;;;;;;5079510;28;20044;-77
2022/11/03 09:25:15;;;;;;;;;;;12.70;99.90;;;;;;5064453;28;20370;-80
2022/11/03 09:27:41;;;;;;;0.32;0.32;;;12.70;99.90;;;;;;5093541;28;19928;-78
2022/11/03 09:30:07;;;;;;;0.30;0.30;;;12.80;99.90;;;;;;5095761;27;20071;-76
2022/11/03 09:32:33;;;;;;;0.40;0.40;;;12.80;99.90;;;;;;5080177;28;20051;-75
2022/11/03 09:34:59;;;;;;;0.60;0.60;;;12.90;99.90;;;;;;5113770;27;20046;-76
2022/11/03 09:37:25;;;;;;;0.70;0.70;;;13.00;99.90;;;;;;5065152;28;20103;-76
2022/11/03 09:39:51;;;;;;;1.23;0.65;;;13.00;99.90;;;;;;5098095;28;20245;-77
2022/11/03 09:42:17;;;;;;;0.73;0.40;;;13.10;99.90;;;;;;5057418;28;20481;-76
2022/11/03 09:44:45;;;;;;;0.88;0.85;;;13.10;99.90;;;;;;5062086;28;20060;-76
2022/11/03 09:47:21;;;;;;;0.40;0.40;;;13.20;99.90;;;;;;5060427;28;20132;-76
2022/11/03 09:49:47;;;;;;;1.65;0.73;;;13.20;99.90;;;;;;5100696;27;20042;-75
2022/11/03 09:52:15;;;;;;;0.80;0.80;;;13.20;99.90;;;;;;5063642;28;20044;-75
2022/11/03 09:54:40;;;;;;;3.00;1.00;;;13.30;99.90;;;;;;5080433;28;20044;-74
2022/11/03 09:57:14;;;;;;;0.30;0.30;;;13.40;99.90;;;;;;5094694;27;20039;-77
2022/11/03 09:59:44;;;;;;;0.30;0.30;;;13.40;99.90;;;;;;5077248;28;20043;-76
2022/11/03 10:02:28;;;;;;;0.20;0.20;;;13.50;99.90;;;;;;5090685;28;20047;-76
2022/11/03 10:04:58;;;;;;;0.30;0.30;;;13.60;99.90;;;;;;5087952;28;20074;-76
2022/11/03 10:07:27;;;;;;;0.40;0.40;;;13.70;99.90;;;;;;5092108;28;20097;-76
2022/11/03 10:09:55;;;;;;;0.40;0.40;;;13.80;99.90;;;;;;5077275;28;20048;-76
2022/11/03 10:12:22;;;;;;;3.42;1.27;;;13.90;99.90;;;;;;5076392;28;20043;-77
2022/11/03 10:14:49;;;;;;;0.52;0.52;;;14.00;99.90;;;;;;5051047;28;20035;-76
2022/11/03 10:17:20;;;;;;;1.15;0.38;;;14.10;99.90;;;;;;5071042;28;20031;-78
2022/11/03 10:19:51;;;;;;;1.00;0.60;;;14.20;99.90;;;;;;5100912;28;20071;-76
2022/11/03 10:22:21;;;;;;;1.73;0.45;;;14.30;99.90;;;;;;5103463;28;20044;-76
2022/11/03 10:24:48;;;;;;;0.30;0.30;;;14.30;99.90;;;;;;5095240;28;20040;-77
2022/11/03 10:27:22;;;;;;;0.28;0.28;;;14.40;99.90;;;;;;5085526;28;20100;-77
2022/11/03 10:30:09;;;;;;;0.25;0.25;;;14.40;99.90;;;;;;5073680;28;20089;-76
2022/11/03 10:32:35;;;;;;;0.17;0.17;;;14.40;99.90;;;;;;5080039;28;20505;-76
2022/11/03 10:35:02;;;;;;;;;;;14.50;99.90;;;;;;5081133;28;20044;-76
2022/11/03 10:37:28;;;;;;;0.30;0.30;;;14.40;99.90;;;;;;5092745;28;19922;-76
2022/11/03 10:39:57;;;;;;;2.38;0.43;;;14.40;99.90;;;;;;5079270;28;20052;-76
2022/11/03 10:42:23;;;;;;;0.47;0.45;;;14.40;99.90;;;;;;5090034;28;20083;-77
2022/11/03 10:44:54;;;;;;;0.30;0.30;;;14.40;99.90;;;;;;5092537;28;20123;-77
2022/11/03 10:47:24;;;;;;;0.43;0.43;;;14.40;99.90;;;;;;5050549;28;20087;-77
2022/11/03 10:49:50;;;;;;;0.20;0.20;;;14.50;99.90;;;;;;5088136;28;20043;-76
2022/11/03 10:52:28;;;;;;;0.63;0.63;;;14.50;99.90;;;;;;5056165;28;20094;-77
2022/11/03 10:54:57;;;;;;;0.40;0.40;;;14.50;99.90;;;;;;5074862;28;20059;-76
2022/11/03 10:57:24;;;;;;;0.40;0.40;;;14.60;99.90;;;;;;5084807;28;20151;-76
2022/11/03 10:59:52;;;;;;;0.43;0.43;;;14.80;99.90;;;;;;5094466;28;20442;-75
2022/11/03 11:02:24;;;;;;;0.47;0.47;;;14.90;99.90;;;;;;5080015;28;20564;-76
2022/11/03 11:04:58;;;;;;;2.60;1.35;;;15.00;99.90;;;;;;5090277;28;20491;-75
2022/11/03 11:07:50;;;;;;;0.35;0.35;;;15.10;99.90;;;;;;5057110;28;20043;-75
2022/11/03 11:10:18;;;;;;;0.30;0.30;;;15.20;99.90;;;;;;5067183;28;20115;-75
2022/11/03 11:13:03;;;;;;;0.40;0.40;;;15.20;99.90;;;;;;5073572;28;20112;-77
2022/11/03 11:15:46;;;;;;;0.40;0.40;;;15.30;99.90;;;;;;5070244;28;20109;-75
2022/11/03 11:18:30;;;;;;;0.38;0.38;;;15.30;99.90;;;;;;5089890;28;20101;-77
2022/11/03 11:20:57;;;;;;;0.38;0.38;;;15.40;99.90;;;;;;5071881;28;20040;-76
2022/11/03 11:23:43;;;;;;;0.40;0.40;;;15.50;99.90;;;;;;5088916;28;20040;-76
2022/11/03 11:26:09;;;;;;;0.30;0.30;;;15.60;99.90;;;;;;5076548;28;20088;-75
2022/11/03 11:28:44;;;;;;;0.55;0.55;;;15.70;99.90;;;;;;5070571;28;20048;-75
2022/11/03 11:31:25;;;;;;;0.85;0.85;;;15.80;99.90;;;;;;5070160;28;20503;-76
2022/11/03 11:34:16;;;;;;;0.98;0.98;;;15.80;99.90;;;;;;5070131;28;20481;-76
2022/11/03 11:37:06;;;;;;;0.57;0.43;;;15.80;99.90;;;;;;5072304;28;20028;-76
2022/11/03 11:39:33;;;;;;;0.35;0.35;;;15.90;99.90;;;;;;5109640;28;20113;-76
2022/11/03 11:42:18;;;;;;;0.57;0.57;;;15.90;99.90;;;;;;5087056;28;20039;-76
2022/11/03 11:44:45;;;;;;;0.40;0.40;;;16.00;99.90;;;;;;5082305;28;20114;-77
2022/11/03 11:47:39;;;;;;;0.38;0.38;;;16.10;99.90;;;;;;5066960;28;20489;-77
2022/11/03 11:50:13;;;;;;;0.60;0.60;;;16.00;99.90;;;;;;5056187;27;20617;-76
2022/11/03 11:53:07;;;;;;;0.20;0.20;;;15.90;99.90;;;;;;5079104;28;20136;-77
2022/11/03 11:55:40;;;;;;;0.40;0.40;;;15.80;99.90;;;;;;5061002;28;20044;-76
2022/11/03 11:58:27;;;;;;;0.30;0.30;;;15.70;99.90;;;;;;5068286;28;20058;-75
2022/11/03 12:01:03;;;;;;;0.30;0.30;;;15.70;99.90;;;;;;5070099;28;20051;-76
2022/11/03 12:03:33;;;;;;;0.13;0.13;;;15.60;99.90;;;;;;5052509;28;20040;-75
2022/11/03 12:05:59;;;;;;;1.10;1.10;;;15.60;99.90;;;;;;5051334;28;20293;-76
2022/11/03 12:08:29;;;;;;;0.55;0.55;;;15.60;99.90;;;;;;5070097;28;20066;-77
2022/11/03 12:10:58;;;;;;;0.40;0.40;;;15.70;99.90;;;;;;5055031;28;20135;-75
2022/11/03 12:13:56;;;;;;;0.20;0.20;;;15.70;99.90;;;;;;5051734;28;20048;-76
2022/11/03 12:16:27;;;;;;;0.77;0.77;;;15.80;99.90;;;;;;5037943;28;20494;-76
2022/11/03 12:18:53;;;;;;;1.63;1.52;;;15.70;99.90;;;;;;5068460;28;20075;-75
2022/11/03 12:21:44;;;;;;;0.30;0.30;;;15.80;99.90;;;;;;5048879;28;20537;-77
2022/11/03 12:24:36;;;;;;;0.30;0.30;;;15.80;99.90;;;;;;5069426;28;20117;-76
2022/11/03 12:27:17;;;;;;;0.30;0.30;;;15.80;99.90;;;;;;5070597;28;20048;-83
2022/11/03 12:29:43;;;;;;;0.20;0.20;;;15.70;99.90;;;;;;5053420;28;20068;-79
2022/11/03 12:32:18;;;;;;;0.50;0.50;;;15.70;99.90;;;;;;5072462;28;20033;-82
2022/11/03 12:34:44;;;;;;;0.30;0.30;;;15.60;99.90;;;;;;5074093;28;20048;-80
2022/11/03 12:37:10;;;;;;;0.25;0.25;;;15.50;99.90;;;;;;5073107;28;20059;-80
2022/11/03 12:39:36;;;;;;;0.40;0.40;;;15.40;99.90;;;;;;5061262;28;20052;-79
2022/11/03 12:42:02;;;;;;;0.40;0.40;;;15.40;99.90;;;;;;5081821;28;20102;-80
2022/11/03 12:44:28;;;;;;;1.13;1.02;;;15.40;99.90;;;;;;5077249;28;20036;-83
2022/11/03 12:46:54;;;;;;;0.35;0.35;;;15.30;99.90;;;;;;5066515;28;20044;-82
2022/11/03 12:49:20;;;;;;;;;;;15.30;99.90;;;;;;5067348;28;20050;-80
2022/11/03 12:51:45;;;;;;;0.20;0.20;;;15.30;99.90;;;;;;5079174;28;19963;-83
2022/11/03 12:54:11;;;;;;;2.00;0.73;;;15.30;99.90;;;;;;5058747;28;20036;-82
2022/11/03 12:56:37;;;;;;;1.83;0.77;;;15.30;99.90;;;;;;5079750;28;20070;-82
2022/11/03 12:59:02;;;;;;;;;;;15.30;99.90;;;;;;5075641;28;20432;-80
2022/11/03 13:01:28;;;;;;;1.42;1.38;;;15.40;99.90;;;;;;5106683;27;19931;-80
2022/11/03 13:03:54;;;;;;;0.82;0.82;;;15.40;99.90;;;;;;5075708;28;20050;-80
2022/11/03 13:06:20;;;;;;;;;;;15.40;99.90;;;;;;5055485;28;20439;-81
2022/11/03 13:08:46;;;;;;;0.40;0.40;;;15.50;99.90;;;;;;5061566;28;19920;-82
2022/11/03 13:13:56;;;;;;;0.40;0.40;;;15.70;99.90;;;;;;5082530;28;20137;-81
2022/11/03 13:16:22;;;;;;;0.30;0.30;;;15.70;99.90;;;;;;5058600;28;20696;-78
2022/11/03 13:18:48;;;;;;;0.57;0.57;;;15.80;99.90;;;;;;5075394;28;20041;-80
2022/11/03 13:21:14;;;;;;;0.47;0.47;;;15.80;99.90;;;;;;5062583;28;20055;-79
2022/11/03 13:23:40;;;;;;;0.40;0.40;;;15.90;99.90;;;;;;5075486;28;20036;-82
2022/11/03 13:26:06;;;;;;;0.55;0.55;;;15.90;99.90;;;;;;5058456;28;20060;-77
2022/11/03 13:28:31;;;;;;;0.85;0.85;;;15.90;99.90;;;;;;5069760;28;20050;-80